Time;durP1;ratioP1;P1;durP2;ratioP2;P2;SDS_P1;SDS_P2;PMS_P1;PMS_P2;Temp;Humidity;BMP_temperature;BMP_pressure;BME280_temperature;BME280_humidity;BME280_pressure;Samples;Min_cycle;Max_cycle;Signal;HPM_P1;HPM_P2
2021/10/13 00:02:49;;;;;;;10.20;2.65;;;16.00;53.30;;;;;;6196165;28;20026;-73
2021/10/13 00:05:50;;;;;;;5.60;2.47;;;16.00;53.20;;;;;;6176604;28;20491;-74
2021/10/13 00:08:51;;;;;;;4.88;2.30;;;16.00;53.10;;;;;;6171462;28;20019;-73
2021/10/13 00:11:52;;;;;;;4.60;2.10;;;16.00;53.10;;;;;;6171400;28;20042;-75
2021/10/13 00:14:53;;;;;;;5.93;2.50;;;16.00;53.00;;;;;;6178673;28;20026;-74
2021/10/13 00:17:54;;;;;;;8.05;2.28;;;16.00;53.00;;;;;;6194822;28;20184;-75
2021/10/13 00:20:55;;;;;;;6.40;2.40;;;16.00;53.00;;;;;;6211250;28;20030;-74
2021/10/13 00:23:56;;;;;;;6.07;3.20;;;16.00;53.00;;;;;;6194889;28;20030;-74
2021/10/13 00:26:57;;;;;;;9.32;2.30;;;16.00;53.00;;;;;;6194524;28;20034;-73
2021/10/13 00:29:58;;;;;;;4.00;2.13;;;16.00;53.00;;;;;;6177965;28;20141;-74
2021/10/13 00:32:59;;;;;;;7.03;2.33;;;16.00;53.00;;;;;;6194870;28;20435;-73
2021/10/13 00:36:00;;;;;;;4.57;2.25;;;16.00;53.00;;;;;;6194031;28;20038;-73
2021/10/13 00:39:01;;;;;;;5.22;2.15;;;16.00;52.90;;;;;;6193877;28;20050;-73
2021/10/13 00:42:02;;;;;;;11.48;2.78;;;16.00;53.00;;;;;;6194004;28;20474;-73
2021/10/13 00:45:06;;;;;;;11.25;2.50;;;16.00;52.90;;;;;;6194355;28;20027;-73
2021/10/13 00:48:08;;;;;;;5.57;2.08;;;16.00;53.00;;;;;;6194138;28;20651;-73
2021/10/13 00:51:09;;;;;;;3.35;1.83;;;16.00;53.60;;;;;;6195248;28;20038;-73
2021/10/13 00:54:10;;;;;;;6.15;2.15;;;16.00;52.90;;;;;;6172862;28;20053;-73
2021/10/13 00:57:12;;;;;;;3.42;1.95;;;15.90;52.90;;;;;;6197951;28;20088;-73
2021/10/13 01:00:14;;;;;;;7.25;2.40;;;15.90;52.90;;;;;;6195279;28;20031;-73
2021/10/13 01:03:52;;;;;;;4.82;2.47;;;15.90;52.90;;;;;;6193938;28;20068;-74
2021/10/13 01:07:24;;;;;;;6.75;2.00;;;15.90;52.90;;;;;;6194068;28;20043;-74
2021/10/13 01:11:09;;;;;;;9.15;2.15;;;15.90;52.80;;;;;;6177951;28;20359;-74
2021/10/13 01:14:41;;;;;;;10.40;1.90;;;16.00;52.80;;;;;;6189495;28;20517;-74
2021/10/13 01:17:56;;;;;;;3.70;2.10;;;15.90;52.70;;;;;;6143674;29;20115;-74
2021/10/13 01:21:04;;;;;;;4.07;1.83;;;15.90;52.70;;;;;;6159747;28;20162;-74
2021/10/13 01:24:19;;;;;;;6.10;2.28;;;15.90;52.70;;;;;;6143867;29;20039;-74
2021/10/13 01:27:44;;;;;;;5.00;1.98;;;15.90;52.70;;;;;;6160048;28;20035;-73
2021/10/13 01:31:11;;;;;;;4.10;1.92;;;15.90;52.60;;;;;;6143745;29;20040;-74
2021/10/13 01:34:25;;;;;;;3.67;2.10;;;15.90;52.60;;;;;;6153608;28;20048;-73
2021/10/13 01:37:34;;;;;;;6.13;2.10;;;15.90;52.50;;;;;;6143732;29;20055;-73
2021/10/13 01:40:37;;;;;;;5.00;2.00;;;16.00;52.60;;;;;;6143949;29;20043;-75
2021/10/13 01:43:42;;;;;;;7.03;1.90;;;16.00;52.60;;;;;;6127733;29;20059;-74
2021/10/13 01:46:45;;;;;;;7.05;2.22;;;16.00;52.50;;;;;;6142808;29;20043;-74
2021/10/13 01:49:47;;;;;;;7.10;2.15;;;16.00;53.10;;;;;;6135884;29;20044;-75
2021/10/13 01:52:50;;;;;;;2.92;1.95;;;16.00;52.40;;;;;;6120238;28;20054;-73
2021/10/13 01:55:53;;;;;;;4.45;2.13;;;16.00;52.40;;;;;;6173269;28;20027;-73
2021/10/13 01:59:05;;;;;;;4.13;2.10;;;16.00;52.40;;;;;;6173667;28;20101;-73
2021/10/13 02:02:06;;;;;;;4.90;2.17;;;16.00;52.40;;;;;;6184129;28;20022;-73
2021/10/13 02:05:08;;;;;;;2.83;2.17;;;16.00;52.30;;;;;;6197992;28;20529;-73
2021/10/13 02:08:11;;;;;;;6.15;2.05;;;16.00;52.20;;;;;;6198833;28;20055;-73
2021/10/13 02:11:13;;;;;;;6.15;2.40;;;16.00;52.10;;;;;;6178621;28;20487;-73
2021/10/13 02:14:17;;;;;;;5.85;2.15;;;16.00;52.10;;;;;;6197527;28;20026;-73
2021/10/13 02:17:20;;;;;;;4.50;1.77;;;16.00;52.00;;;;;;6181232;28;20034;-74
2021/10/13 02:20:22;;;;;;;7.03;1.88;;;16.00;52.00;;;;;;6197312;28;20046;-74
2021/10/13 02:23:28;;;;;;;6.13;1.75;;;16.00;51.90;;;;;;6198183;28;20073;-74
2021/10/13 02:26:42;;;;;;;2.78;1.38;;;16.00;51.90;;;;;;6197119;28;20399;-74
2021/10/13 02:29:44;;;;;;;4.03;1.75;;;16.10;51.90;;;;;;6197646;28;20631;-74
2021/10/13 02:32:45;;;;;;;4.38;1.95;;;16.10;51.80;;;;;;6198600;28;20084;-74
2021/10/13 02:35:46;;;;;;;4.55;1.60;;;16.00;51.70;;;;;;6197738;28;20487;-74
2021/10/13 02:38:47;;;;;;;5.95;1.95;;;16.00;51.60;;;;;;6196534;28;20042;-73
2021/10/13 02:41:48;;;;;;;4.13;1.70;;;16.00;51.60;;;;;;6193807;28;20034;-74
2021/10/13 02:44:49;;;;;;;6.55;1.88;;;16.00;51.60;;;;;;6196857;28;20456;-74
2021/10/13 02:47:57;;;;;;;2.70;1.52;;;16.00;51.60;;;;;;6196423;28;20112;-74
2021/10/13 02:51:13;;;;;;;;;;;16.00;51.60;;;;;;6197872;28;20133;-74
2021/10/13 02:54:24;;;;;;;4.50;1.40;;;16.00;51.60;;;;;;6196018;28;19909;-74
2021/10/13 02:57:37;;;;;;;6.63;1.70;;;16.00;51.60;;;;;;6197297;28;20069;-74
2021/10/13 03:00:40;;;;;;;1.75;1.25;;;16.00;51.60;;;;;;6187856;28;20030;-73
2021/10/13 03:03:58;;;;;;;5.80;1.80;;;15.90;51.60;;;;;;6197105;28;20359;-73
2021/10/13 03:07:12;;;;;;;2.88;1.92;;;15.90;51.70;;;;;;6196177;28;20044;-73
2021/10/13 03:10:14;;;;;;;2.97;1.60;;;15.90;51.70;;;;;;6195932;28;20049;-73
2021/10/13 03:13:20;;;;;;;3.20;1.58;;;15.90;51.70;;;;;;6197188;28;20591;-74
2021/10/13 03:16:22;;;;;;;3.05;1.73;;;15.90;51.70;;;;;;6196572;28;20023;-74
2021/10/13 03:19:25;;;;;;;7.10;1.60;;;15.90;51.70;;;;;;6196851;28;20610;-74
2021/10/13 03:22:27;;;;;;;5.70;1.67;;;15.90;51.70;;;;;;6195813;28;20034;-74
2021/10/13 03:25:31;;;;;;;2.58;1.63;;;15.90;51.70;;;;;;6196621;28;20037;-74
2021/10/13 03:28:33;;;;;;;5.50;1.60;;;15.90;51.70;;;;;;6179310;28;20036;-74
2021/10/13 03:31:34;;;;;;;4.10;1.85;;;15.90;51.70;;;;;;6195112;28;20030;-74
2021/10/13 03:34:35;;;;;;;5.85;1.73;;;15.90;51.80;;;;;;6196350;28;20466;-73
2021/10/13 03:37:36;;;;;;;4.32;1.80;;;15.80;51.80;;;;;;6195913;28;20652;-74
2021/10/13 03:40:37;;;;;;;7.22;2.03;;;15.80;51.90;;;;;;6195201;28;20070;-73
2021/10/13 03:43:49;;;;;;;3.47;1.80;;;15.80;51.90;;;;;;6195453;28;20034;-74
2021/10/13 03:46:50;;;;;;;3.90;1.50;;;15.80;52.00;;;;;;6195059;28;20447;-74
2021/10/13 03:49:51;;;;;;;6.20;2.13;;;15.80;52.20;;;;;;6195070;28;20033;-73
2021/10/13 03:52:52;;;;;;;7.78;1.55;;;15.70;52.20;;;;;;6177592;28;20570;-75
2021/10/13 03:55:53;;;;;;;10.00;2.10;;;15.70;52.20;;;;;;6186608;28;20034;-74
2021/10/13 03:58:54;;;;;;;8.80;1.88;;;15.70;52.40;;;;;;6171710;28;20365;-73
2021/10/13 04:01:55;;;;;;;4.22;1.63;;;15.60;52.40;;;;;;6171408;28;20113;-73
2021/10/13 04:04:56;;;;;;;2.85;1.50;;;15.60;52.50;;;;;;6186868;28;20427;-73
2021/10/13 04:07:56;;;;;;;4.60;1.83;;;15.50;52.60;;;;;;6171550;28;20100;-72
2021/10/13 04:10:57;;;;;;;3.50;1.60;;;15.50;52.70;;;;;;6170586;28;20030;-73
2021/10/13 04:13:58;;;;;;;7.15;1.65;;;15.40;52.90;;;;;;6193581;28;20050;-74
2021/10/13 04:16:59;;;;;;;2.80;1.65;;;15.30;53.10;;;;;;6190784;28;20042;-73
2021/10/13 04:20:05;;;;;;;9.75;1.95;;;15.30;53.30;;;;;;6177496;28;20034;-73
2021/10/13 04:23:06;;;;;;;3.88;1.55;;;15.10;53.40;;;;;;6195608;28;20058;-74
2021/10/13 04:26:07;;;;;;;4.70;2.10;;;15.10;53.60;;;;;;6195437;28;20033;-72
2021/10/13 04:29:08;;;;;;;2.05;1.45;;;15.10;53.90;;;;;;6191864;28;20647;-73
2021/10/13 04:32:08;;;;;;;5.95;1.55;;;15.00;53.90;;;;;;6194031;28;20085;-74
2021/10/13 04:35:10;;;;;;;2.78;1.52;;;15.00;53.90;;;;;;6172979;28;20031;-73
2021/10/13 04:38:11;;;;;;;3.50;1.65;;;15.00;54.00;;;;;;6185823;28;20132;-74
2021/10/13 04:41:12;;;;;;;2.78;1.52;;;14.90;54.00;;;;;;6169864;28;20053;-73
2021/10/13 04:44:14;;;;;;;3.03;1.67;;;15.00;54.10;;;;;;6194439;28;20069;-72
2021/10/13 04:47:15;;;;;;;8.65;2.10;;;15.00;54.00;;;;;;6193689;28;20034;-74
2021/10/13 04:50:18;;;;;;;6.03;1.77;;;15.00;54.10;;;;;;6193899;28;20069;-75
2021/10/13 04:53:20;;;;;;;5.95;1.80;;;15.00;53.90;;;;;;6209382;28;20022;-74
2021/10/13 04:56:21;;;;;;;2.88;1.67;;;15.10;54.00;;;;;;6172403;28;20085;-74
2021/10/13 04:59:22;;;;;;;5.88;1.85;;;15.10;53.90;;;;;;6170510;28;20029;-75
2021/10/13 05:02:23;;;;;;;3.78;1.45;;;15.10;53.90;;;;;;6157459;28;20022;-76
2021/10/13 05:05:24;;;;;;;2.90;1.80;;;15.10;53.90;;;;;;6197459;28;20026;-73
2021/10/13 05:08:25;;;;;;;3.45;1.95;;;15.10;53.90;;;;;;6179245;28;20037;-75
2021/10/13 05:11:26;;;;;;;3.35;1.63;;;15.10;54.00;;;;;;6193631;28;20022;-74
2021/10/13 05:14:27;;;;;;;4.70;1.60;;;15.10;54.00;;;;;;6192513;28;20026;-73
2021/10/13 05:17:28;;;;;;;5.78;1.70;;;15.10;54.00;;;;;;6208311;28;20048;-78
2021/10/13 05:20:29;;;;;;;4.95;1.90;;;15.10;54.10;;;;;;6209103;28;20030;-76
2021/10/13 05:23:30;;;;;;;5.60;1.95;;;15.10;54.10;;;;;;6205535;28;20057;-75
2021/10/13 05:26:32;;;;;;;7.10;1.88;;;15.00;54.10;;;;;;6182658;28;20030;-74
2021/10/13 05:29:33;;;;;;;4.80;1.95;;;15.00;54.20;;;;;;6213396;28;20525;-74
2021/10/13 05:32:33;;;;;;;7.43;2.47;;;15.00;54.30;;;;;;6228184;28;20530;-72
2021/10/13 05:35:34;;;;;;;4.03;1.83;;;14.80;54.40;;;;;;6211300;28;20084;-77
2021/10/13 05:38:35;;;;;;;2.92;1.83;;;14.80;54.60;;;;;;6212543;28;20109;-74
2021/10/13 05:41:36;;;;;;;7.85;1.75;;;14.70;54.70;;;;;;6195949;28;20049;-73
2021/10/13 05:44:37;;;;;;;6.05;2.00;;;14.70;54.80;;;;;;6249517;28;20037;-74
2021/10/13 05:47:38;;;;;;;5.90;1.85;;;14.60;54.90;;;;;;6235083;28;20045;-74
2021/10/13 05:50:39;;;;;;;9.30;2.25;;;14.60;54.90;;;;;;6251259;28;20124;-74
2021/10/13 05:53:40;;;;;;;7.13;2.20;;;14.60;55.00;;;;;;6252356;28;20044;-73
2021/10/13 05:56:41;;;;;;;5.57;2.40;;;14.50;55.00;;;;;;6233718;28;20373;-72
2021/10/13 05:59:43;;;;;;;5.90;2.15;;;14.50;55.00;;;;;;6220369;28;20046;-73
2021/10/13 06:02:44;;;;;;;6.72;2.30;;;14.60;55.10;;;;;;6240715;28;20053;-76
2021/10/13 06:05:45;;;;;;;3.75;1.90;;;14.60;55.00;;;;;;6209976;28;20141;-75
2021/10/13 06:08:46;;;;;;;6.18;1.98;;;14.60;55.10;;;;;;6226788;28;20038;-75
2021/10/13 06:11:46;;;;;;;6.88;2.25;;;14.60;55.10;;;;;;6213895;28;20132;-75
2021/10/13 06:14:47;;;;;;;3.97;2.38;;;14.60;55.10;;;;;;6252513;28;20037;-76
2021/10/13 06:17:48;;;;;;;3.03;2.03;;;14.50;55.10;;;;;;6250882;28;20385;-75
2021/10/13 06:20:49;;;;;;;7.68;2.38;;;14.50;55.20;;;;;;6248836;28;20049;-80
2021/10/13 06:23:50;;;;;;;7.15;2.88;;;14.50;55.40;;;;;;6224405;28;20117;-73
2021/10/13 06:26:51;;;;;;;5.85;2.15;;;14.50;55.30;;;;;;6235802;28;20481;-73
2021/10/13 06:29:52;;;;;;;10.27;3.03;;;14.50;55.30;;;;;;6227642;28;20037;-72
2021/10/13 06:32:53;;;;;;;13.25;2.83;;;14.50;55.20;;;;;;6226738;28;20351;-73
2021/10/13 06:35:55;;;;;;;12.50;2.97;;;14.60;55.20;;;;;;6225541;28;20034;-72
2021/10/13 06:38:56;;;;;;;5.68;2.45;;;14.60;55.00;;;;;;6224861;28;20370;-73
2021/10/13 06:41:56;;;;;;;6.90;2.30;;;14.70;54.90;;;;;;6246206;28;20091;-73
2021/10/13 06:44:57;;;;;;;4.80;2.40;;;14.80;54.90;;;;;;6248544;28;20045;-73
2021/10/13 06:47:58;;;;;;;4.18;2.00;;;14.80;54.90;;;;;;6249259;28;20029;-73
2021/10/13 06:50:59;;;;;;;5.03;2.65;;;14.70;54.80;;;;;;6250888;28;20449;-72
2021/10/13 06:54:00;;;;;;;4.50;2.05;;;14.70;54.90;;;;;;6249540;28;20045;-73
2021/10/13 06:57:01;;;;;;;3.63;2.10;;;14.70;54.90;;;;;;6250496;28;20033;-72
2021/10/13 07:00:04;;;;;;;3.60;2.00;;;14.70;54.90;;;;;;6222830;28;20042;-72
2021/10/13 07:03:05;;;;;;;3.72;2.28;;;14.70;54.90;;;;;;6228922;28;20037;-72
2021/10/13 07:06:06;;;;;;;4.80;2.25;;;14.70;54.90;;;;;;6226314;28;20378;-72
2021/10/13 07:09:06;;;;;;;6.55;2.85;;;14.80;55.00;;;;;;6224325;28;20061;-72
2021/10/13 07:12:08;;;;;;;9.55;3.00;;;14.80;55.50;;;;;;6221485;28;20048;-73
2021/10/13 07:15:09;;;;;;;9.00;2.88;;;14.80;54.80;;;;;;6213390;28;20029;-73
2021/10/13 07:18:10;;;;;;;6.10;2.95;;;14.80;54.70;;;;;;6248783;28;20057;-73
2021/10/13 07:21:11;;;;;;;5.03;2.50;;;14.90;54.70;;;;;;6248956;28;20059;-73
2021/10/13 07:24:12;;;;;;;6.45;2.60;;;14.90;54.60;;;;;;6249238;28;20037;-72
2021/10/13 07:27:13;;;;;;;6.35;2.00;;;15.10;54.60;;;;;;6245894;28;20037;-73
2021/10/13 07:30:17;;;;;;;7.70;2.35;;;15.20;54.40;;;;;;6199700;28;20169;-73
2021/10/13 07:33:19;;;;;;;5.60;2.13;;;15.40;54.10;;;;;;6232814;28;20048;-72
2021/10/13 07:36:21;;;;;;;5.82;2.50;;;15.60;53.80;;;;;;6232196;28;20045;-72
2021/10/13 07:39:21;;;;;;;5.50;2.35;;;15.70;53.40;;;;;;6248593;28;20129;-72
2021/10/13 07:42:23;;;;;;;10.00;2.63;;;15.90;52.90;;;;;;6247698;28;20099;-72
2021/10/13 07:45:24;;;;;;;4.05;1.88;;;16.00;52.70;;;;;;6247911;28;20033;-73
2021/10/13 07:48:25;;;;;;;4.78;1.80;;;16.10;52.50;;;;;;6247949;28;20448;-73
2021/10/13 07:51:26;;;;;;;6.45;2.70;;;16.20;52.30;;;;;;6247780;28;20050;-73
2021/10/13 07:54:27;;;;;;;6.15;2.40;;;16.30;52.20;;;;;;6248252;28;20042;-72
2021/10/13 07:57:28;;;;;;;4.00;2.10;;;16.30;52.00;;;;;;6227213;28;20135;-72
2021/10/13 08:00:29;;;;;;;5.38;2.22;;;16.30;52.00;;;;;;6239630;28;20362;-73
2021/10/13 08:03:29;;;;;;;5.75;1.85;;;16.40;52.00;;;;;;6223456;28;20049;-73
2021/10/13 08:06:30;;;;;;;6.70;1.92;;;16.50;51.90;;;;;;6225114;28;20030;-73
2021/10/13 08:09:32;;;;;;;6.32;2.42;;;16.50;51.80;;;;;;6224685;28;20068;-72
2021/10/13 08:12:33;;;;;;;4.32;2.15;;;16.60;51.70;;;;;;6234265;28;20065;-72
2021/10/13 08:15:34;;;;;;;4.57;2.00;;;16.70;51.70;;;;;;6220034;28;20041;-72
2021/10/13 08:18:35;;;;;;;5.13;2.40;;;16.70;51.50;;;;;;6221702;28;20038;-72
2021/10/13 08:21:36;;;;;;;6.10;2.15;;;16.80;51.50;;;;;;6202791;28;20030;-72
2021/10/13 08:24:37;;;;;;;8.80;2.15;;;16.90;51.40;;;;;;6218022;28;20037;-73
2021/10/13 08:27:38;;;;;;;7.38;1.90;;;17.00;51.30;;;;;;6222835;28;20038;-72
2021/10/13 08:30:41;;;;;;;5.35;2.42;;;17.00;51.20;;;;;;6223477;28;20053;-73
2021/10/13 08:33:42;;;;;;;11.45;2.45;;;17.10;51.00;;;;;;6224221;28;20037;-73
2021/10/13 08:36:43;;;;;;;9.43;2.33;;;17.10;51.00;;;;;;6222908;28;20041;-72
2021/10/13 08:39:44;;;;;;;3.47;2.10;;;17.20;51.10;;;;;;6222884;28;20042;-73
2021/10/13 08:43:11;;;;;;;8.65;2.28;;;17.20;51.10;;;;;;6235290;28;20033;-73
2021/10/13 08:46:12;;;;;;;8.98;2.78;;;17.30;50.90;;;;;;6219503;28;20034;-72
2021/10/13 08:49:13;;;;;;;4.60;2.55;;;17.40;50.80;;;;;;6223323;28;20049;-73
2021/10/13 08:52:14;;;;;;;6.20;2.88;;;17.40;50.90;;;;;;6222454;28;20042;-74
2021/10/13 08:55:15;;;;;;;6.90;2.30;;;17.50;50.80;;;;;;6246189;28;20045;-73
2021/10/13 08:58:23;;;;;;;10.05;3.55;;;17.60;50.60;;;;;;6227137;28;20030;-73
2021/10/13 09:01:25;;;;;;;5.80;2.67;;;17.70;50.60;;;;;;6195834;28;20034;-73
2021/10/13 09:04:25;;;;;;;8.23;2.85;;;17.80;50.40;;;;;;6184605;28;20387;-74
2021/10/13 09:07:26;;;;;;;7.47;2.50;;;17.90;50.20;;;;;;6224676;28;20124;-73
2021/10/13 09:10:30;;;;;;;5.03;2.47;;;18.10;50.00;;;;;;6226074;28;20125;-72
2021/10/13 09:13:36;;;;;;;4.43;2.38;;;18.10;49.70;;;;;;6223425;28;20381;-73
2021/10/13 09:16:59;;;;;;;5.43;2.40;;;18.30;49.60;;;;;;6252870;28;20030;-73
2021/10/13 09:20:00;;;;;;;7.55;2.80;;;18.30;49.10;;;;;;6251494;28;20056;-72
2021/10/13 09:23:20;;;;;;;13.10;2.53;;;18.40;49.10;;;;;;6252415;28;20037;-73
2021/10/13 09:26:25;;;;;;;10.10;2.67;;;18.40;49.00;;;;;;6251161;28;20307;-73
2021/10/13 09:29:26;;;;;;;3.47;2.70;;;18.50;48.80;;;;;;6231163;28;20030;-72
2021/10/13 09:32:27;;;;;;;4.28;2.20;;;18.60;48.60;;;;;;6241151;28;20090;-73
2021/10/13 09:35:29;;;;;;;4.75;2.70;;;18.70;48.50;;;;;;6225330;28;20415;-74
2021/10/13 09:38:31;;;;;;;6.15;2.70;;;18.80;48.30;;;;;;6241356;28;20038;-72
2021/10/13 09:41:52;;;;;;;11.50;2.45;;;18.90;48.10;;;;;;6227519;28;20049;-73
2021/10/13 09:44:56;;;;;;;5.00;2.30;;;19.00;48.00;;;;;;6242751;28;20029;-72
2021/10/13 09:48:04;;;;;;;8.57;2.97;;;19.10;47.60;;;;;;6232013;28;20120;-73
2021/10/13 09:51:18;;;;;;;10.13;2.50;;;19.20;47.50;;;;;;6248992;28;20358;-74
2021/10/13 09:54:25;;;;;;;4.00;2.47;;;19.20;47.20;;;;;;6248219;28;20041;-73
2021/10/13 09:57:28;;;;;;;5.33;2.33;;;19.30;47.00;;;;;;6244560;28;20034;-73
2021/10/13 10:00:29;;;;;;;5.20;2.45;;;19.40;46.90;;;;;;6223594;28;20034;-73
2021/10/13 10:03:30;;;;;;;6.43;2.65;;;19.40;46.80;;;;;;6204209;28;20049;-72
2021/10/13 10:06:33;;;;;;;12.52;3.97;;;19.50;46.50;;;;;;6223536;28;20096;-73
2021/10/13 10:09:34;;;;;;;6.38;2.58;;;19.50;46.50;;;;;;6223260;28;20351;-74
2021/10/13 10:12:55;;;;;;;6.45;2.55;;;19.50;46.20;;;;;;6235202;28;20052;-74
2021/10/13 10:15:57;;;;;;;5.50;2.92;;;19.50;46.20;;;;;;6229489;28;20091;-72
2021/10/13 10:19:28;;;;;;;5.88;2.55;;;19.50;46.20;;;;;;6236578;28;20059;-73
2021/10/13 10:22:45;;;;;;;7.57;2.78;;;19.40;46.30;;;;;;6181392;28;20057;-73
2021/10/13 10:25:45;;;;;;;6.78;2.85;;;19.40;46.30;;;;;;6172153;28;20034;-74
2021/10/13 10:28:59;;;;;;;4.72;2.65;;;19.20;46.30;;;;;;6169041;28;20463;-73
2021/10/13 10:32:00;;;;;;;4.38;2.25;;;19.10;46.50;;;;;;6196313;28;20474;-74
2021/10/13 10:35:04;;;;;;;7.65;3.10;;;19.00;46.80;;;;;;6179422;28;20154;-73
2021/10/13 10:38:05;;;;;;;5.15;2.95;;;19.00;47.00;;;;;;6186070;28;20053;-73
2021/10/13 10:41:10;;;;;;;6.88;2.70;;;18.90;46.90;;;;;;6179082;28;20422;-73
2021/10/13 10:44:29;;;;;;;6.53;2.83;;;18.90;47.00;;;;;;6196074;28;20069;-73
2021/10/13 10:47:50;;;;;;;6.30;3.05;;;18.90;47.00;;;;;;6172285;28;20078;-74
2021/10/13 10:50:50;;;;;;;6.65;3.05;;;18.90;47.10;;;;;;6173080;28;20065;-73
2021/10/13 10:53:52;;;;;;;5.35;2.70;;;18.90;47.00;;;;;;6172801;28;20039;-73
2021/10/13 10:56:52;;;;;;;6.13;2.85;;;19.00;46.80;;;;;;6172437;28;20038;-72
2021/10/13 10:59:53;;;;;;;5.32;2.38;;;19.30;46.60;;;;;;6189869;28;20422;-73
2021/10/13 11:03:25;;;;;;;5.15;3.00;;;19.60;46.10;;;;;;6181688;28;20030;-74
2021/10/13 11:06:32;;;;;;;4.90;2.30;;;19.90;45.50;;;;;;6212321;28;20192;-73
2021/10/13 11:09:33;;;;;;;6.15;2.95;;;20.20;45.00;;;;;;6211772;28;20463;-73
2021/10/13 11:12:56;;;;;;;4.50;2.80;;;20.40;44.60;;;;;;6232851;28;20099;-74
2021/10/13 11:16:07;;;;;;;5.32;2.75;;;20.60;44.30;;;;;;6248733;28;20033;-74
2021/10/13 11:19:20;;;;;;;9.30;2.63;;;20.80;43.80;;;;;;6231670;28;20116;-74
2021/10/13 11:22:21;;;;;;;5.95;3.17;;;21.10;43.40;;;;;;6248351;28;20037;-73
2021/10/13 11:25:24;;;;;;;5.65;2.88;;;21.30;42.70;;;;;;6247729;28;20052;-73
2021/10/13 11:28:36;;;;;;;6.55;3.55;;;21.50;42.50;;;;;;6210673;28;20084;-73
2021/10/13 11:31:37;;;;;;;4.95;2.67;;;21.70;42.10;;;;;;6199238;28;20049;-75
2021/10/13 11:34:39;;;;;;;9.70;2.80;;;22.00;41.60;;;;;;6214722;28;20487;-73
2021/10/13 11:37:48;;;;;;;4.75;2.58;;;22.30;40.80;;;;;;6199097;28;20432;-74
2021/10/13 11:40:49;;;;;;;9.68;2.55;;;22.50;40.20;;;;;;6198801;28;20451;-73
2021/10/13 11:43:51;;;;;;;9.32;2.75;;;22.50;39.80;;;;;;6240195;28;20033;-72
2021/10/13 11:47:07;;;;;;;5.05;2.80;;;22.40;39.70;;;;;;6247604;28;20037;-72
2021/10/13 11:50:13;;;;;;;6.28;2.60;;;22.30;39.80;;;;;;6246853;28;20172;-74
2021/10/13 11:53:14;;;;;;;4.07;2.42;;;22.10;39.80;;;;;;6247654;28;20092;-73
2021/10/13 11:56:16;;;;;;;6.07;3.30;;;21.80;40.30;;;;;;6246701;28;20041;-73
2021/10/13 11:59:17;;;;;;;4.28;2.65;;;21.60;40.70;;;;;;6226485;28;20470;-73
2021/10/13 12:02:19;;;;;;;5.18;2.90;;;21.30;41.20;;;;;;6218753;28;20105;-74
2021/10/13 12:05:20;;;;;;;4.10;2.40;;;21.10;41.60;;;;;;6221888;28;20030;-73
2021/10/13 12:08:28;;;;;;;4.22;2.85;;;20.80;42.00;;;;;;6221690;28;20037;-74
2021/10/13 12:11:35;;;;;;;;;;;20.60;42.40;;;;;;6224051;28;20104;-73
2021/10/13 12:14:36;;;;;;;7.68;2.78;;;20.50;42.70;;;;;;6232649;28;19917;-73
2021/10/13 12:17:37;;;;;;;7.18;3.40;;;20.20;43.00;;;;;;6240410;28;20109;-73
2021/10/13 12:20:38;;;;;;;7.25;3.20;;;20.00;43.50;;;;;;6222352;28;20034;-72
2021/10/13 12:23:45;;;;;;;8.10;3.10;;;19.80;43.80;;;;;;6221537;28;20038;-72
2021/10/13 12:26:46;;;;;;;7.05;2.83;;;19.70;44.20;;;;;;6221874;28;20060;-73
2021/10/13 12:29:46;;;;;;;4.63;2.42;;;19.60;44.30;;;;;;6200350;28;20046;-72
2021/10/13 12:32:47;;;;;;;7.43;3.97;;;19.60;44.40;;;;;;6195505;28;20066;-73
2021/10/13 12:35:48;;;;;;;5.05;2.75;;;19.80;44.40;;;;;;6199486;28;20459;-73
2021/10/13 12:38:53;;;;;;;11.95;2.60;;;20.00;44.10;;;;;;6198303;28;20399;-72
2021/10/13 12:42:05;;;;;;;4.90;2.80;;;20.10;43.50;;;;;;6208248;28;20034;-73
2021/10/13 12:45:07;;;;;;;5.65;2.40;;;20.00;43.40;;;;;;6240465;28;20105;-73
2021/10/13 12:48:19;;;;;;;17.38;2.92;;;19.90;43.40;;;;;;6236031;28;20041;-73
2021/10/13 12:51:20;;;;;;;9.93;2.50;;;19.70;43.70;;;;;;6217800;28;20374;-73
2021/10/13 12:54:22;;;;;;;9.80;3.03;;;19.70;44.10;;;;;;6214485;28;20046;-72
2021/10/13 12:57:28;;;;;;;5.43;2.70;;;19.60;44.20;;;;;;6212057;28;20088;-73
2021/10/13 13:00:29;;;;;;;7.68;2.80;;;19.50;44.20;;;;;;6219300;28;20053;-73
2021/10/13 13:03:30;;;;;;;6.93;2.60;;;19.50;44.40;;;;;;6209864;28;20037;-74
2021/10/13 13:06:31;;;;;;;5.63;2.10;;;19.40;44.60;;;;;;6211283;28;20034;-73
2021/10/13 13:09:33;;;;;;;8.65;2.90;;;19.40;44.70;;;;;;6214175;28;20042;-73
2021/10/13 13:12:34;;;;;;;6.47;3.22;;;19.40;44.70;;;;;;6196600;28;20209;-73
2021/10/13 13:15:35;;;;;;;11.90;2.25;;;19.30;44.80;;;;;;6210834;28;20393;-72
2021/10/13 13:18:36;;;;;;;7.60;2.15;;;19.30;44.80;;;;;;6209120;28;20045;-74
2021/10/13 13:21:37;;;;;;;5.22;2.28;;;19.30;44.60;;;;;;6191650;28;20432;-73
2021/10/13 13:24:38;;;;;;;4.55;2.55;;;19.30;44.80;;;;;;6193480;28;20103;-73
2021/10/13 13:27:39;;;;;;;7.22;2.10;;;19.20;44.80;;;;;;6216866;28;20416;-74
2021/10/13 13:30:40;;;;;;;6.28;2.58;;;19.20;44.90;;;;;;6213378;28;20045;-73
2021/10/13 13:33:41;;;;;;;6.78;2.45;;;19.20;44.90;;;;;;6229663;28;20140;-73
2021/10/13 13:36:42;;;;;;;12.98;2.45;;;19.20;45.00;;;;;;6218999;28;20068;-72
2021/10/13 13:39:43;;;;;;;4.22;2.10;;;19.20;44.90;;;;;;6228658;28;20470;-73
2021/10/13 13:42:46;;;;;;;5.78;1.98;;;19.20;44.80;;;;;;6232320;28;20034;-73
2021/10/13 13:45:48;;;;;;;6.00;2.10;;;19.20;44.80;;;;;;6230822;28;20418;-74
2021/10/13 13:48:49;;;;;;;5.20;2.45;;;19.30;44.70;;;;;;6221300;28;20026;-74
2021/10/13 13:51:50;;;;;;;4.18;1.73;;;19.40;45.30;;;;;;6223806;28;20470;-73
2021/10/13 13:54:51;;;;;;;3.97;2.00;;;19.60;44.50;;;;;;6234292;28;20033;-73
2021/10/13 13:57:53;;;;;;;6.88;1.85;;;19.70;44.10;;;;;;6207052;28;20372;-73
2021/10/13 14:00:54;;;;;;;3.75;1.85;;;19.90;43.80;;;;;;6218035;28;20033;-73
2021/10/13 14:03:55;;;;;;;3.08;1.80;;;20.00;43.50;;;;;;6216903;28;20045;-72
2021/10/13 14:06:56;;;;;;;3.83;2.40;;;20.10;43.20;;;;;;6245443;28;20112;-72
2021/10/13 14:09:57;;;;;;;2.72;1.75;;;20.10;42.80;;;;;;6219321;28;20381;-72
2021/10/13 14:12:58;;;;;;;6.75;2.00;;;20.20;42.70;;;;;;6220082;28;20030;-73
2021/10/13 14:15:58;;;;;;;3.80;2.13;;;20.10;42.70;;;;;;6213465;28;20324;-73
2021/10/13 14:18:59;;;;;;;4.25;1.73;;;20.20;42.80;;;;;;6215476;28;20049;-72
2021/10/13 14:22:01;;;;;;;4.93;1.33;;;20.20;42.80;;;;;;6207726;28;20037;-74
2021/10/13 14:25:03;;;;;;;4.78;1.35;;;20.10;42.70;;;;;;6208605;28;20366;-73
2021/10/13 14:28:04;;;;;;;13.02;1.58;;;20.10;42.50;;;;;;6201060;28;20030;-73
2021/10/13 14:31:06;;;;;;;5.28;1.70;;;20.20;42.40;;;;;;6218954;28;20030;-74
2021/10/13 14:34:07;;;;;;;5.07;2.22;;;20.20;42.10;;;;;;6223176;28;20394;-74
2021/10/13 14:37:08;;;;;;;3.03;1.15;;;20.20;42.10;;;;;;6222754;28;20065;-73
2021/10/13 14:40:12;;;;;;;1.60;0.93;;;20.20;42.10;;;;;;6223583;28;20452;-73
2021/10/13 14:43:16;;;;;;;2.35;1.10;;;20.20;41.90;;;;;;6241085;28;20041;-73
2021/10/13 14:46:17;;;;;;;1.35;0.98;;;20.10;41.80;;;;;;6248371;28;20037;-73
2021/10/13 14:49:18;;;;;;;1.40;1.08;;;20.10;41.60;;;;;;6248729;28;20493;-73
2021/10/13 14:52:19;;;;;;;3.88;1.83;;;20.00;41.40;;;;;;6244576;28;20037;-72
2021/10/13 14:55:20;;;;;;;6.97;1.48;;;19.80;41.60;;;;;;6248176;28;20029;-73
2021/10/13 14:58:22;;;;;;;2.03;1.30;;;19.80;41.70;;;;;;6219872;28;20343;-74
2021/10/13 15:01:23;;;;;;;2.55;1.15;;;19.70;41.90;;;;;;6223211;28;20034;-74
2021/10/13 15:04:25;;;;;;;1.63;1.30;;;19.60;42.00;;;;;;6223383;28;20466;-72
2021/10/13 15:07:26;;;;;;;2.53;1.20;;;19.50;42.10;;;;;;6223735;28;20038;-73
2021/10/13 15:10:28;;;;;;;1.52;1.10;;;19.50;42.20;;;;;;6223913;28;20110;-73
2021/10/13 15:13:29;;;;;;;2.03;1.20;;;19.40;42.30;;;;;;6241166;28;20105;-72
2021/10/13 15:16:30;;;;;;;1.77;1.15;;;19.40;42.50;;;;;;6246821;28;20319;-73
2021/10/13 15:19:31;;;;;;;3.50;1.38;;;19.30;42.70;;;;;;6248800;28;20030;-72
2021/10/13 15:22:33;;;;;;;9.57;1.35;;;19.30;42.90;;;;;;6246501;28;20069;-72
2021/10/13 15:25:34;;;;;;;4.03;1.50;;;19.30;43.10;;;;;;6247088;28;20037;-72
2021/10/13 15:28:35;;;;;;;8.13;1.60;;;19.20;43.10;;;;;;6223256;28;20038;-73
2021/10/13 15:31:35;;;;;;;1.33;1.10;;;19.10;43.40;;;;;;6180031;28;20045;-71
2021/10/13 15:34:36;;;;;;;4.47;1.45;;;19.10;43.60;;;;;;6203812;28;20030;-74
2021/10/13 15:37:38;;;;;;;2.33;1.40;;;19.00;44.50;;;;;;6205928;28;20137;-73
2021/10/13 15:40:39;;;;;;;1.92;1.10;;;19.00;44.10;;;;;;6208429;28;20038;-72
2021/10/13 15:43:40;;;;;;;4.07;1.70;;;18.90;44.20;;;;;;6192976;28;20049;-73
2021/10/13 15:46:41;;;;;;;2.22;1.40;;;18.90;44.10;;;;;;6211866;28;20026;-73
2021/10/13 15:49:45;;;;;;;6.82;1.90;;;18.90;44.30;;;;;;6199504;28;20058;-74
2021/10/13 15:52:57;;;;;;;2.97;1.45;;;18.70;44.40;;;;;;6198380;28;20046;-73
2021/10/13 15:56:01;;;;;;;6.13;1.70;;;18.70;44.70;;;;;;6213636;28;20041;-73